Παρασκευή, 25 Μαΐου 2007

Παρασκευή 25 Μάη, Προσοχή!

Η ημέρα ξεκινά με καταιγίδες στις θαλάσσιες ΒΔ περιοχές της Κρήτης και με ομίχλη σε εσωτερικές (από τις λίγες φορές που βλέπω καθαρά το σημα FG σε ΜΕΤΑΡ της ΕΜΥ στην Κρήτη: LGTL 250400Z 00000KT 0500 FG SCT003 15/15 Q1012). Άπό ότι φαίνεται η μέρα αυτή θα έχει καιρικό ενδιαφέρον για αρκετές περιοχές και καλό θα είναι να δωθεί προσοχή τις ώρες 9πμ-5μμ για τοπικά έντονα φαινόμενα σε περιοχές εσωτερικές αλλά πιθανά και σε παραθαλάσσιες βόρειες περιοχές όπου ανα μένονται καταιγίδες. Στους 8,2 βαθμούς Κελσίου κατρακύλησε η θερμοκρασία στο Τζερμιάδων.

Δεν υπάρχουν σχόλια: